createdAt,value
2022-09-14T00:01:23.678Z,98642.94
2022-09-14T00:03:45.937Z,98647.28
2022-09-14T00:06:16.125Z,98636.47
2022-09-14T00:08:43.668Z,98633.50
2022-09-14T00:11:15.214Z,98634.59
2022-09-14T00:13:46.280Z,98630.25
2022-09-14T00:16:15.832Z,98635.94
2022-09-14T00:18:42.962Z,98615.16
2022-09-14T00:21:11.619Z,98619.69
2022-09-14T00:23:40.618Z,98620.25
2022-09-14T00:26:10.492Z,98608.63
2022-09-14T00:28:38.982Z,98609.44
2022-09-14T00:31:06.589Z,98610.53
2022-09-14T00:33:34.330Z,98613.78
2022-09-14T00:36:12.643Z,98605.13
2022-09-14T00:38:40.056Z,98608.66
2022-09-14T00:41:08.970Z,98607.63
2022-09-14T00:43:54.577Z,98608.19
2022-09-14T00:46:22.027Z,98605.72
2022-09-14T00:48:48.988Z,98613.88
2022-09-14T00:51:17.546Z,98609.06
2022-09-14T00:53:44.170Z,98606.16
2022-09-14T00:56:10.954Z,98598.91
2022-09-14T00:58:38.372Z,98606.72
2022-09-14T01:01:05.069Z,98604.88
2022-09-14T01:03:31.751Z,98600.06
2022-09-14T01:05:58.271Z,98601.47
2022-09-14T01:08:31.442Z,98591.22
2022-09-14T01:11:23.375Z,98598.00
2022-09-14T01:14:03.767Z,98602.59
2022-09-14T01:16:30.588Z,98594.50
2022-09-14T01:18:59.884Z,98593.72
2022-09-14T01:21:31.941Z,98590.50
2022-09-14T01:24:07.761Z,98594.28
2022-09-14T01:27:16.035Z,98587.81
2022-09-14T01:29:51.201Z,98593.50
2022-09-14T01:32:26.340Z,98595.66
2022-09-14T01:35:16.405Z,98586.22
2022-09-14T01:37:47.683Z,98587.31
2022-09-14T01:40:16.848Z,98586.50
2022-09-14T01:42:49.128Z,98583.28
2022-09-14T01:45:19.086Z,98586.53
2022-09-14T01:47:49.331Z,98593.00
2022-09-14T01:50:34.039Z,98591.66
2022-09-14T01:53:07.065Z,98598.16
2022-09-14T01:55:38.368Z,98599.47
2022-09-14T01:58:09.882Z,98594.34
2022-09-14T02:00:39.975Z,98581.97
2022-09-14T02:03:12.674Z,98580.03
2022-09-14T02:05:45.161Z,98583.84
2022-09-14T02:08:12.179Z,98592.75
2022-09-14T02:10:39.073Z,98576.81
2022-09-14T02:13:07.241Z,98583.03
2022-09-14T02:15:35.699Z,98585.44
2022-09-14T02:18:03.179Z,98578.69
2022-09-14T02:20:47.426Z,98573.03
2022-09-14T02:23:14.356Z,98573.28
2022-09-14T02:25:41.270Z,98574.34
2022-09-14T02:28:08.292Z,98565.44
2022-09-14T02:31:02.605Z,98566.78
2022-09-14T02:33:50.219Z,98554.38
2022-09-14T02:36:24.913Z,98548.72
2022-09-14T02:39:33.362Z,98539.00
2022-09-14T02:42:38.952Z,98545.75
2022-09-14T02:45:22.097Z,98537.69
2022-09-14T02:48:03.943Z,98541.72
2022-09-14T02:51:06.673Z,98549.03
2022-09-14T02:53:39.650Z,98543.63
2022-09-14T02:56:08.378Z,98543.63
2022-09-14T02:58:40.767Z,98539.84
2022-09-14T03:01:09.839Z,98539.03
2022-09-14T03:03:36.709Z,98540.91
2022-09-14T03:06:03.723Z,98533.38
2022-09-14T03:08:30.585Z,98537.38
2022-09-14T03:10:57.569Z,98539.03
2022-09-14T03:13:24.518Z,98536.91
2022-09-14T03:15:51.380Z,98538.50
2022-09-14T03:18:18.646Z,98541.75
2022-09-14T03:20:45.691Z,98541.19
2022-09-14T03:23:13.134Z,98537.16
2022-09-14T03:25:43.643Z,98533.09
2022-09-14T03:28:11.456Z,98521.50
2022-09-14T03:30:38.177Z,98529.34
2022-09-14T03:33:04.977Z,98526.13
2022-09-14T03:35:32.228Z,98527.72
2022-09-14T03:37:59.723Z,98525.28
2022-09-14T03:40:27.481Z,98520.97
2022-09-14T03:42:54.480Z,98531.78
2022-09-14T03:45:21.910Z,98527.16
2022-09-14T03:47:48.961Z,98526.09
2022-09-14T03:50:16.611Z,98521.50
2022-09-14T03:52:43.447Z,98531.75
2022-09-14T03:55:10.369Z,98531.75
2022-09-14T03:57:38.689Z,98546.31
2022-09-14T04:00:07.164Z,98533.63
2022-09-14T04:02:38.121Z,98532.25
2022-09-14T04:05:05.153Z,98531.44
2022-09-14T04:07:31.751Z,98525.78
2022-09-14T04:09:58.561Z,98532.25
2022-09-14T04:12:25.247Z,98535.22
2022-09-14T04:14:51.977Z,98538.75
2022-09-14T04:17:18.607Z,98538.44
2022-09-14T04:19:45.446Z,98537.38
2022-09-14T04:22:12.103Z,98543.31
2022-09-14T04:24:38.758Z,98543.31
2022-09-14T04:27:05.469Z,98546.78
2022-09-14T04:29:32.223Z,98540.31
2022-09-14T04:31:58.905Z,98541.91
2022-09-14T04:34:25.687Z,98541.94
2022-09-14T04:36:52.352Z,98543.81
2022-09-14T04:39:18.992Z,98535.72
2022-09-14T04:41:46.335Z,98525.16
2022-09-14T04:44:13.061Z,98521.66
2022-09-14T04:46:46.159Z,98520.31
2022-09-14T04:49:14.872Z,98515.41
2022-09-14T04:51:41.556Z,98510.00
2022-09-14T04:54:08.351Z,98478.63
2022-09-14T04:56:36.850Z,98481.59
2022-09-14T04:59:04.506Z,98469.97
2022-09-14T05:01:35.014Z,98492.59
2022-09-14T05:04:01.933Z,98490.63
2022-09-14T05:06:32.096Z,98494.66
2022-09-14T05:09:00.173Z,98500.00
2022-09-14T05:11:30.095Z,98508.31
2022-09-14T05:13:57.827Z,98520.13
2022-09-14T05:16:35.385Z,98523.06
2022-09-14T05:19:04.823Z,98521.13
2022-09-14T05:21:33.149Z,98523.53
2022-09-14T05:24:02.086Z,98521.81
2022-09-14T05:26:30.323Z,98528.28
2022-09-14T05:28:58.677Z,98528.28
2022-09-14T05:31:26.838Z,98532.38
2022-09-14T05:33:54.258Z,98530.47
2022-09-14T05:36:21.384Z,98533.72
2022-09-14T05:38:48.234Z,98529.31
2022-09-14T05:41:15.908Z,98526.59
2022-09-14T05:43:43.058Z,98521.69
2022-09-14T05:46:22.399Z,98505.22
2022-09-14T05:48:51.900Z,98485.50
2022-09-14T05:51:21.425Z,98480.09
2022-09-14T05:53:55.696Z,98472.78
2022-09-14T05:56:23.849Z,98468.09
2022-09-14T05:58:51.132Z,98466.09
2022-09-14T06:01:26.988Z,98459.22
2022-09-14T06:03:55.105Z,98457.47
2022-09-14T06:06:22.614Z,98470.78
2022-09-14T06:08:52.716Z,98468.38
2022-09-14T06:11:22.728Z,98460.19
2022-09-14T06:13:50.074Z,98478.09
2022-09-14T06:16:20.599Z,98499.63
2022-09-14T06:18:48.011Z,98500.44
2022-09-14T06:21:16.907Z,98496.41
2022-09-14T06:23:44.180Z,98505.69
2022-09-14T06:26:11.164Z,98512.91
2022-09-14T06:28:38.516Z,98522.69
2022-09-14T06:31:07.775Z,98513.56
2022-09-14T06:33:35.199Z,98514.66
2022-09-14T06:36:09.961Z,98517.28
2022-09-14T06:38:36.661Z,98515.78
2022-09-14T06:41:06.338Z,98517.38
2022-09-14T06:43:36.128Z,98510.75
2022-09-14T06:46:04.242Z,98512.06
2022-09-14T06:48:34.399Z,98504.75
2022-09-14T06:51:01.558Z,98513.28
2022-09-14T06:53:28.215Z,98510.38
2022-09-14T06:55:59.384Z,98511.28
2022-09-14T06:58:26.128Z,98509.13
2022-09-14T07:00:52.725Z,98500.91
2022-09-14T07:03:19.402Z,98508.53
2022-09-14T07:05:45.996Z,98509.81
2022-09-14T07:08:12.622Z,98510.22
2022-09-14T07:10:39.299Z,98513.28
2022-09-14T07:13:05.980Z,98512.34
2022-09-14T07:15:33.400Z,98511.03
2022-09-14T07:18:00.006Z,98516.84
2022-09-14T07:20:26.641Z,98512.34
2022-09-14T07:22:53.229Z,98515.75
2022-09-14T07:25:19.820Z,98513.91
2022-09-14T07:27:46.422Z,98522.78
2022-09-14T07:30:13.070Z,98522.47
2022-09-14T07:32:39.740Z,98523.31
2022-09-14T07:35:06.666Z,98527.03
2022-09-14T07:37:33.259Z,98520.09
2022-09-14T07:40:00.238Z,98524.09
2022-09-14T07:42:26.939Z,98517.69
2022-09-14T07:44:53.594Z,98522.81
2022-09-14T07:47:20.227Z,98519.13
2022-09-14T07:49:46.884Z,98512.84
2022-09-14T07:52:13.515Z,98517.38
2022-09-14T07:54:40.143Z,98513.50
2022-09-14T07:57:06.774Z,98513.78
2022-09-14T07:59:37.395Z,98500.13
2022-09-14T08:02:08.338Z,98497.31
2022-09-14T08:04:36.257Z,98503.06
2022-09-14T08:07:03.524Z,98497.47
2022-09-14T08:09:30.290Z,98500.13
2022-09-14T08:11:57.267Z,98501.81
2022-09-14T08:14:23.996Z,98500.69
2022-09-14T08:16:50.730Z,98503.09
2022-09-14T08:19:19.723Z,98489.78
2022-09-14T08:21:47.857Z,98493.72
2022-09-14T08:24:18.161Z,98495.19
2022-09-14T08:26:45.375Z,98491.81
2022-09-14T08:29:13.718Z,98488.88
2022-09-14T08:31:40.815Z,98493.66
2022-09-14T08:34:07.495Z,98481.34
2022-09-14T08:36:39.132Z,98480.19
2022-09-14T08:39:09.350Z,98480.09
2022-09-14T08:41:56.729Z,98465.81
2022-09-14T08:44:23.323Z,98462.03
2022-09-14T08:46:55.847Z,98466.59
2022-09-14T08:49:41.114Z,98472.03
2022-09-14T08:52:13.671Z,98473.91
2022-09-14T08:54:41.046Z,98483.75
2022-09-14T08:57:37.818Z,98475.25
2022-09-14T09:00:14.182Z,98481.00
2022-09-14T09:03:07.802Z,98477.66
2022-09-14T09:05:44.586Z,98467.84
2022-09-14T09:08:39.796Z,98465.75
2022-09-14T09:11:14.159Z,98473.03
2022-09-14T09:13:41.566Z,98472.44
2022-09-14T09:16:11.068Z,98463.63
2022-09-14T09:18:48.152Z,98471.44
2022-09-14T09:21:23.614Z,98477.38
2022-09-14T09:23:50.393Z,98482.22
2022-09-14T09:26:25.653Z,98477.94
2022-09-14T09:28:54.059Z,98484.81
2022-09-14T09:31:33.305Z,98481.59
2022-09-14T09:34:29.021Z,98481.69
2022-09-14T09:37:17.542Z,98484.19
2022-09-14T09:39:44.725Z,98494.34
2022-09-14T09:42:16.198Z,98485.34
2022-09-14T09:45:03.583Z,98490.44
2022-09-14T09:47:39.759Z,98487.81
2022-09-14T09:50:19.210Z,98490.59
2022-09-14T09:53:02.103Z,98493.44
2022-09-14T09:55:38.463Z,98495.38
2022-09-14T09:58:37.371Z,98484.75
2022-09-14T10:01:11.624Z,98491.16
2022-09-14T10:03:40.457Z,98491.94
2022-09-14T10:06:12.165Z,98498.78
2022-09-14T10:08:43.916Z,98507.50
2022-09-14T10:11:37.994Z,98511.59
2022-09-14T10:14:05.946Z,98528.84
2022-09-14T10:16:41.786Z,98545.91
2022-09-14T10:19:19.518Z,98555.72
2022-09-14T10:22:24.383Z,98556.38
2022-09-14T10:25:02.020Z,98568.53
2022-09-14T10:27:52.896Z,98554.81
2022-09-14T10:30:21.650Z,98552.06
2022-09-14T10:33:13.179Z,98541.13
2022-09-14T10:36:11.342Z,98527.03
2022-09-14T10:38:55.187Z,98514.13
2022-09-14T10:41:37.058Z,98510.94
2022-09-14T10:44:28.298Z,98515.03
2022-09-14T10:47:10.916Z,98501.81
2022-09-14T10:50:02.574Z,98507.22
2022-09-14T10:52:35.563Z,98500.03
2022-09-14T10:55:02.476Z,98515.91
2022-09-14T10:57:35.146Z,98505.09
2022-09-14T11:00:12.586Z,98505.09
2022-09-14T11:02:58.111Z,98498.81
2022-09-14T11:05:46.711Z,98491.16
2022-09-14T11:08:47.340Z,98495.97
2022-09-14T11:11:32.249Z,98483.34
2022-09-14T11:14:14.157Z,98474.47
2022-09-14T11:16:55.915Z,98465.66
2022-09-14T11:19:56.997Z,98476.94
2022-09-14T11:22:40.975Z,98477.75
2022-09-14T11:25:18.075Z,98468.97
2022-09-14T11:27:50.910Z,98475.78
2022-09-14T11:30:17.491Z,98484.13
2022-09-14T11:32:57.683Z,98469.16
2022-09-14T11:35:29.123Z,98465.63
2022-09-14T11:38:23.430Z,98462.72
2022-09-14T11:40:55.917Z,98445.59
2022-09-14T11:43:31.378Z,98440.53
2022-09-14T11:46:13.163Z,98433.88
2022-09-14T11:48:52.189Z,98422.41
2022-09-14T11:51:24.117Z,98422.84
2022-09-14T11:53:51.057Z,98417.50
2022-09-14T11:56:27.390Z,98406.66
2022-09-14T11:59:04.245Z,98400.50
2022-09-14T12:01:39.504Z,98393.81
2022-09-14T12:04:26.107Z,98385.41
2022-09-14T12:06:54.658Z,98379.88
2022-09-14T12:09:21.380Z,98371.69
2022-09-14T12:11:49.495Z,98366.16
2022-09-14T12:14:28.721Z,98352.28
2022-09-14T12:17:38.705Z,98336.13
2022-09-14T12:20:28.087Z,98336.84
2022-09-14T12:23:23.587Z,98327.44
2022-09-14T12:26:19.863Z,98305.25
2022-09-14T12:28:48.794Z,98310.56
2022-09-14T12:31:44.098Z,98304.34
2022-09-14T12:34:25.501Z,98306.75
2022-09-14T12:36:52.182Z,98299.63
2022-09-14T12:39:35.709Z,98287.97
2022-09-14T12:42:29.893Z,98291.69
2022-09-14T12:44:56.659Z,98288.16
2022-09-14T12:47:27.908Z,98289.72
2022-09-14T12:50:00.529Z,98281.59
2022-09-14T12:52:29.851Z,98274.84
2022-09-14T12:55:05.583Z,98277.09
2022-09-14T12:57:59.982Z,98281.81
2022-09-14T13:00:30.010Z,98277.69
2022-09-14T13:03:08.711Z,98286.84
2022-09-14T13:05:35.502Z,98282.38
2022-09-14T13:08:09.711Z,98279.72
2022-09-14T13:10:40.283Z,98285.78
2022-09-14T13:13:15.410Z,98281.06
2022-09-14T13:15:51.633Z,98286.06
2022-09-14T13:18:18.241Z,98269.16
2022-09-14T13:20:53.037Z,98269.50
2022-09-14T13:23:37.447Z,98263.25
2022-09-14T13:26:42.436Z,98274.13
2022-09-14T13:29:09.165Z,98275.75
2022-09-14T13:31:37.784Z,98274.13
2022-09-14T13:34:05.450Z,98273.31
2022-09-14T13:36:35.625Z,98269.09
2022-09-14T13:39:03.568Z,98270.31
2022-09-14T13:41:31.287Z,98271.16
2022-09-14T13:43:58.802Z,98279.25
2022-09-14T13:46:27.010Z,98287.25
2022-09-14T13:48:54.859Z,98292.28
2022-09-14T13:51:27.197Z,98290.94
2022-09-14T13:53:56.299Z,98292.44
2022-09-14T13:56:31.516Z,98284.50
2022-09-14T13:59:07.543Z,98288.03
2022-09-14T14:01:40.149Z,98292.06
2022-09-14T14:04:21.202Z,98287.44
2022-09-14T14:06:59.510Z,98288.56
2022-09-14T14:09:38.707Z,98284.25
2022-09-14T14:12:05.665Z,98286.16
2022-09-14T14:14:32.316Z,98281.88
2022-09-14T14:17:30.128Z,98271.19
2022-09-14T14:19:58.662Z,98265.66
2022-09-14T14:22:32.726Z,98262.84
2022-09-14T14:25:13.352Z,98261.97
2022-09-14T14:27:46.753Z,98249.94
2022-09-14T14:30:18.980Z,98241.09
2022-09-14T14:32:56.592Z,98243.03
2022-09-14T14:35:29.192Z,98242.88
2022-09-14T14:37:56.437Z,98244.47
2022-09-14T14:40:23.928Z,98242.94
2022-09-14T14:42:51.544Z,98245.06
2022-09-14T14:45:21.382Z,98257.41
2022-09-14T14:47:49.596Z,98260.63
2022-09-14T14:50:18.823Z,98262.78
2022-09-14T14:52:45.489Z,98259.63
2022-09-14T14:55:12.166Z,98251.78
2022-09-14T14:57:41.628Z,98255.88
2022-09-14T15:00:15.388Z,98250.88
2022-09-14T15:02:42.736Z,98258.56
2022-09-14T15:05:09.851Z,98254.31
2022-09-14T15:07:37.877Z,98253.09
2022-09-14T15:10:06.167Z,98256.59
2022-09-14T15:12:33.396Z,98259.31
2022-09-14T15:15:00.481Z,98258.25
2022-09-14T15:17:27.229Z,98254.63
2022-09-14T15:19:53.874Z,98261.94
2022-09-14T15:22:20.768Z,98250.94
2022-09-14T15:24:47.411Z,98238.22
2022-09-14T15:27:14.979Z,98236.88
2022-09-14T15:29:41.636Z,98231.69
2022-09-14T15:32:08.530Z,98232.97
2022-09-14T15:34:35.441Z,98242.63
2022-09-14T15:37:02.103Z,98235.63
2022-09-14T15:39:29.927Z,98241.16
2022-09-14T15:41:57.222Z,98232.00
2022-09-14T15:44:23.884Z,98226.91
2022-09-14T15:46:50.775Z,98230.91
2022-09-14T15:49:19.951Z,98220.97
2022-09-14T15:51:50.425Z,98214.72
2022-09-14T15:54:18.117Z,98208.41
2022-09-14T15:56:54.947Z,98220.16
2022-09-14T15:59:24.534Z,98217.53
2022-09-14T16:01:51.242Z,98214.34
2022-09-14T16:04:18.828Z,98207.88
2022-09-14T16:06:46.169Z,98202.94
2022-09-14T16:09:14.611Z,98213.19
2022-09-14T16:11:41.631Z,98206.22
2022-09-14T16:14:09.600Z,98199.22
2022-09-14T16:16:37.679Z,98209.31
2022-09-14T16:19:06.083Z,98211.28
2022-09-14T16:21:32.812Z,98212.06
2022-09-14T16:24:00.941Z,98224.00
2022-09-14T16:26:33.008Z,98222.81
2022-09-14T16:29:00.676Z,98214.28
2022-09-14T16:31:30.042Z,98208.47
2022-09-14T16:33:59.141Z,98207.69
2022-09-14T16:36:28.974Z,98210.00
2022-09-14T16:38:57.639Z,98216.84
2022-09-14T16:41:25.101Z,98217.41
2022-09-14T16:43:59.863Z,98199.50
2022-09-14T16:46:28.110Z,98186.38
2022-09-14T16:48:55.456Z,98177.13
2022-09-14T16:51:24.401Z,98167.69
2022-09-14T16:53:52.093Z,98150.72
2022-09-14T16:56:23.904Z,98153.22
2022-09-14T16:58:52.126Z,98161.56
2022-09-14T17:01:21.922Z,98164.03
2022-09-14T17:03:50.388Z,98158.44
2022-09-14T17:06:22.967Z,98158.22
2022-09-14T17:08:49.791Z,98144.03
2022-09-14T17:11:17.148Z,98153.38
2022-09-14T17:13:44.622Z,98142.56
2022-09-14T17:16:14.331Z,98137.31
2022-09-14T17:18:42.279Z,98129.56
2022-09-14T17:21:11.541Z,98129.09
2022-09-14T17:23:38.901Z,98128.78
2022-09-14T17:26:09.951Z,98130.66
2022-09-14T17:28:37.415Z,98139.41
2022-09-14T17:31:06.245Z,98130.50
2022-09-14T17:33:35.554Z,98128.44
2022-09-14T17:36:04.150Z,98132.97
2022-09-14T17:38:33.986Z,98117.16
2022-09-14T17:41:12.197Z,98130.69
2022-09-14T17:43:40.130Z,98128.16
2022-09-14T17:46:08.162Z,98132.66
2022-09-14T17:48:37.582Z,98133.31
2022-09-14T17:51:12.374Z,98115.53
2022-09-14T17:53:40.444Z,98127.47
2022-09-14T17:56:09.124Z,98125.16
2022-09-14T17:58:36.600Z,98123.75
2022-09-14T18:01:14.385Z,98120.09
2022-09-14T18:03:42.946Z,98110.84
2022-09-14T18:06:11.930Z,98107.97
2022-09-14T18:08:39.366Z,98110.09
2022-09-14T18:11:08.009Z,98108.38
2022-09-14T18:13:34.958Z,98113.22
2022-09-14T18:16:01.867Z,98111.63
2022-09-14T18:18:28.554Z,98101.06
2022-09-14T18:20:55.205Z,98107.50
2022-09-14T18:23:21.850Z,98112.34
2022-09-14T18:25:48.564Z,98111.53
2022-09-14T18:28:15.233Z,98109.00
2022-09-14T18:30:43.784Z,98108.72
2022-09-14T18:33:10.825Z,98099.25
2022-09-14T18:35:38.236Z,98093.34
2022-09-14T18:38:06.687Z,98102.50
2022-09-14T18:40:38.746Z,98104.63
2022-09-14T18:43:05.577Z,98106.84
2022-09-14T18:45:34.265Z,98114.25
2022-09-14T18:48:01.655Z,98124.69
2022-09-14T18:50:28.767Z,98137.06
2022-09-14T18:52:55.477Z,98137.69
2022-09-14T18:55:23.702Z,98131.97
2022-09-14T18:57:51.172Z,98137.41
2022-09-14T19:00:18.891Z,98149.91
2022-09-14T19:02:51.442Z,98154.75
2022-09-14T19:05:18.427Z,98162.75
2022-09-14T19:07:45.079Z,98144.34
2022-09-14T19:10:11.970Z,98140.19
2022-09-14T19:12:38.751Z,98143.75
2022-09-14T19:15:06.014Z,98140.72
2022-09-14T19:17:32.836Z,98140.41
2022-09-14T19:19:59.658Z,98137.50
2022-09-14T19:22:26.418Z,98128.84
2022-09-14T19:24:53.149Z,98113.66
2022-09-14T19:27:19.781Z,98122.50
2022-09-14T19:29:46.455Z,98130.34
2022-09-14T19:32:13.890Z,98159.16
2022-09-14T19:34:40.670Z,98181.41
2022-09-14T19:37:07.302Z,98175.19
2022-09-14T19:39:33.915Z,98176.63
2022-09-14T19:42:00.553Z,98200.47
2022-09-14T19:44:27.384Z,98225.75
2022-09-14T19:46:54.114Z,98242.25
2022-09-14T19:49:24.731Z,98266.53
2022-09-14T19:51:51.886Z,98268.31
2022-09-14T19:54:18.759Z,98280.78
2022-09-14T19:56:46.290Z,98281.03
2022-09-14T19:59:13.638Z,98289.47
2022-09-14T20:01:40.518Z,98290.06
2022-09-14T20:04:08.044Z,98296.94
2022-09-14T20:06:38.180Z,98313.69
2022-09-14T20:09:09.735Z,98335.91
2022-09-14T20:11:37.890Z,98342.13
2022-09-14T20:14:10.562Z,98338.25
2022-09-14T20:16:42.735Z,98340.66
2022-09-14T20:19:22.273Z,98338.19
2022-09-14T20:21:50.665Z,98334.28
2022-09-14T20:24:26.267Z,98322.38
2022-09-14T20:26:55.326Z,98305.22
2022-09-14T20:29:23.077Z,98295.16
2022-09-14T20:31:50.235Z,98288.59
2022-09-14T20:34:20.427Z,98274.03
2022-09-14T20:36:51.059Z,98249.41
2022-09-14T20:39:18.433Z,98250.38
2022-09-14T20:41:45.164Z,98251.03
2022-09-14T20:44:12.123Z,98250.34
2022-09-14T20:46:41.370Z,98268.25
2022-09-14T20:49:12.586Z,98274.28
2022-09-14T20:51:40.214Z,98278.00
2022-09-14T20:54:08.099Z,98271.69
2022-09-14T20:56:35.923Z,98262.91
2022-09-14T20:59:05.970Z,98241.75
2022-09-14T21:01:35.086Z,98250.53
2022-09-14T21:04:15.640Z,98232.16
2022-09-14T21:06:44.997Z,98226.22
2022-09-14T21:09:12.657Z,98224.59
2022-09-14T21:11:39.787Z,98238.00
2022-09-14T21:14:06.774Z,98236.09
2022-09-14T21:16:42.952Z,98239.72
2022-09-14T21:19:13.801Z,98236.50
2022-09-14T21:21:40.983Z,98226.75
2022-09-14T21:24:10.442Z,98203.34
2022-09-14T21:26:42.366Z,98192.91
2022-09-14T21:29:12.891Z,98197.97
2022-09-14T21:31:39.638Z,98202.28
2022-09-14T21:34:07.779Z,98211.97
2022-09-14T21:36:37.203Z,98212.47
2022-09-14T21:39:08.483Z,98223.94
2022-09-14T21:41:35.839Z,98211.16
2022-09-14T21:44:02.592Z,98225.97
2022-09-14T21:46:29.372Z,98234.22
2022-09-14T21:48:56.626Z,98234.72
2022-09-14T21:51:28.682Z,98237.44
2022-09-14T21:53:57.743Z,98229.59
2022-09-14T21:56:26.918Z,98236.47
2022-09-14T21:58:55.714Z,98241.19
2022-09-14T22:01:23.954Z,98246.31
2022-09-14T22:03:51.941Z,98252.34
2022-09-14T22:06:22.616Z,98249.63
2022-09-14T22:08:49.755Z,98249.44
2022-09-14T22:11:22.804Z,98253.47
2022-09-14T22:13:57.398Z,98258.91
2022-09-14T22:16:25.117Z,98267.03
2022-09-14T22:18:54.057Z,98264.63
2022-09-14T22:21:21.626Z,98265.91
2022-09-14T22:23:50.327Z,98264.63
2022-09-14T22:26:19.647Z,98268.16
2022-09-14T22:28:48.159Z,98268.44
2022-09-14T22:31:15.295Z,98257.88
2022-09-14T22:33:42.000Z,98265.31
2022-09-14T22:36:10.071Z,98268.16
2022-09-14T22:38:37.033Z,98249.75
2022-09-14T22:41:10.588Z,98246.03
2022-09-14T22:43:38.079Z,98264.13
2022-09-14T22:46:05.724Z,98260.94
2022-09-14T22:48:32.710Z,98269.88
2022-09-14T22:51:00.266Z,98273.88
2022-09-14T22:53:27.521Z,98273.38
2022-09-14T22:55:54.567Z,98270.34
2022-09-14T22:58:22.827Z,98265.03
2022-09-14T23:00:49.667Z,98263.63
2022-09-14T23:03:17.263Z,98254.06
2022-09-14T23:05:52.055Z,98253.25
2022-09-14T23:08:19.342Z,98252.16
2022-09-14T23:10:46.316Z,98248.47
2022-09-14T23:13:12.961Z,98245.75
2022-09-14T23:15:40.067Z,98248.97
2022-09-14T23:18:07.339Z,98254.19
2022-09-14T23:20:41.863Z,98249.69
2022-09-14T23:23:09.839Z,98249.38
2022-09-14T23:25:38.590Z,98235.31
2022-09-14T23:28:06.700Z,98230.38
2022-09-14T23:30:33.686Z,98232.59
2022-09-14T23:33:01.063Z,98227.50
2022-09-14T23:35:28.552Z,98232.72
2022-09-14T23:37:55.807Z,98231.31
2022-09-14T23:40:23.100Z,98226.00
2022-09-14T23:42:49.877Z,98224.91
2022-09-14T23:45:16.599Z,98236.03
2022-09-14T23:47:43.242Z,98232.84
2022-09-14T23:50:10.159Z,98227.72
2022-09-14T23:52:37.097Z,98237.47
2022-09-14T23:55:04.603Z,98236.66
2022-09-14T23:57:31.259Z,98239.66
2022-09-14T23:59:58.679Z,98241.28
